sensor_id;sensor_type;location;lat;lon;timestamp;P1;durP1;ratioP1;P2;durP2;ratioP2
7517;SDS011;3800;48.922;9.444;2023-01-28T00:00:00;6.57;;;5.87;;
7517;SDS011;3800;48.922;9.444;2023-01-28T00:02:27;7.20;;;6.50;;
7517;SDS011;3800;48.922;9.444;2023-01-28T00:04:55;7.93;;;6.70;;
7517;SDS011;3800;48.922;9.444;2023-01-28T00:07:23;7.40;;;6.43;;
7517;SDS011;3800;48.922;9.444;2023-01-28T00:09:51;7.30;;;6.60;;
7517;SDS011;3800;48.922;9.444;2023-01-28T00:12:18;7.63;;;6.03;;
7517;SDS011;3800;48.922;9.444;2023-01-28T00:14:46;7.63;;;5.80;;
7517;SDS011;3800;48.922;9.444;2023-01-28T00:17:14;7.40;;;5.80;;
7517;SDS011;3800;48.922;9.444;2023-01-28T00:19:41;7.70;;;6.43;;
7517;SDS011;3800;48.922;9.444;2023-01-28T00:22:09;7.30;;;6.53;;
7517;SDS011;3800;48.922;9.444;2023-01-28T00:24:36;8.83;;;6.57;;
7517;SDS011;3800;48.922;9.444;2023-01-28T00:27:04;7.80;;;6.20;;
7517;SDS011;3800;48.922;9.444;2023-01-28T00:29:32;7.03;;;6.33;;
7517;SDS011;3800;48.922;9.444;2023-01-28T00:32:00;7.43;;;6.20;;
7517;SDS011;3800;48.922;9.444;2023-01-28T00:34:28;7.57;;;6.77;;
7517;SDS011;3800;48.922;9.444;2023-01-28T00:36:55;8.13;;;6.80;;
7517;SDS011;3800;48.922;9.444;2023-01-28T00:39:24;7.90;;;7.10;;
7517;SDS011;3800;48.922;9.444;2023-01-28T00:41:52;7.80;;;6.80;;
7517;SDS011;3800;48.922;9.444;2023-01-28T00:44:19;7.93;;;6.93;;
7517;SDS011;3800;48.922;9.444;2023-01-28T00:46:48;7.83;;;6.33;;
7517;SDS011;3800;48.922;9.444;2023-01-28T00:49:15;7.60;;;6.17;;
7517;SDS011;3800;48.922;9.444;2023-01-28T00:51:43;7.23;;;6.07;;
7517;SDS011;3800;48.922;9.444;2023-01-28T00:54:11;6.70;;;6.00;;
7517;SDS011;3800;48.922;9.444;2023-01-28T00:56:38;6.43;;;5.30;;
7517;SDS011;3800;48.922;9.444;2023-01-28T00:59:06;6.53;;;5.73;;
7517;SDS011;3800;48.922;9.444;2023-01-28T01:01:33;7.07;;;6.00;;
7517;SDS011;3800;48.922;9.444;2023-01-28T01:04:01;6.37;;;5.70;;
7517;SDS011;3800;48.922;9.444;2023-01-28T01:06:30;6.93;;;6.13;;
7517;SDS011;3800;48.922;9.444;2023-01-28T01:08:59;5.87;;;5.27;;
7517;SDS011;3800;48.922;9.444;2023-01-28T01:11:27;6.57;;;5.73;;
7517;SDS011;3800;48.922;9.444;2023-01-28T01:13:56;6.20;;;5.07;;
7517;SDS011;3800;48.922;9.444;2023-01-28T01:16:25;6.63;;;5.93;;
7517;SDS011;3800;48.922;9.444;2023-01-28T01:18:51;7.20;;;6.23;;
7517;SDS011;3800;48.922;9.444;2023-01-28T01:21:20;8.00;;;6.67;;
7517;SDS011;3800;48.922;9.444;2023-01-28T01:23:47;6.87;;;6.00;;
7517;SDS011;3800;48.922;9.444;2023-01-28T01:26:15;7.27;;;6.57;;
7517;SDS011;3800;48.922;9.444;2023-01-28T01:28:42;6.30;;;5.70;;
7517;SDS011;3800;48.922;9.444;2023-01-28T01:31:11;6.93;;;6.23;;
7517;SDS011;3800;48.922;9.444;2023-01-28T01:33:38;7.43;;;6.47;;
7517;SDS011;3800;48.922;9.444;2023-01-28T01:36:07;6.50;;;5.67;;
7517;SDS011;3800;48.922;9.444;2023-01-28T01:38:34;7.80;;;6.10;;
7517;SDS011;3800;48.922;9.444;2023-01-28T01:41:02;6.87;;;6.03;;
7517;SDS011;3800;48.922;9.444;2023-01-28T01:46:09;5.93;;;5.33;;
7517;SDS011;3800;48.922;9.444;2023-01-28T01:48:37;5.97;;;5.37;;
7517;SDS011;3800;48.922;9.444;2023-01-28T01:51:07;6.63;;;6.00;;
7517;SDS011;3800;48.922;9.444;2023-01-28T01:53:35;6.57;;;5.87;;
7517;SDS011;3800;48.922;9.444;2023-01-28T01:56:03;7.80;;;6.47;;
7517;SDS011;3800;48.922;9.444;2023-01-28T01:58:32;6.77;;;6.07;;
7517;SDS011;3800;48.922;9.444;2023-01-28T02:00:59;7.80;;;6.77;;
7517;SDS011;3800;48.922;9.444;2023-01-28T02:03:28;7.37;;;6.57;;
7517;SDS011;3800;48.922;9.444;2023-01-28T02:05:55;7.70;;;6.03;;
7517;SDS011;3800;48.922;9.444;2023-01-28T02:08:22;7.10;;;6.40;;
7517;SDS011;3800;48.922;9.444;2023-01-28T02:10:52;6.80;;;5.77;;
7517;SDS011;3800;48.922;9.444;2023-01-28T02:13:19;6.83;;;6.13;;
7517;SDS011;3800;48.922;9.444;2023-01-28T02:15:46;6.80;;;6.10;;
7517;SDS011;3800;48.922;9.444;2023-01-28T02:18:14;6.70;;;6.00;;
7517;SDS011;3800;48.922;9.444;2023-01-28T02:20:51;6.40;;;5.70;;
7517;SDS011;3800;48.922;9.444;2023-01-28T02:23:17;6.63;;;5.47;;
7517;SDS011;3800;48.922;9.444;2023-01-28T02:26:04;7.07;;;5.57;;
7517;SDS011;3800;48.922;9.444;2023-01-28T02:28:39;6.97;;;6.27;;
7517;SDS011;3800;48.922;9.444;2023-01-28T02:31:38;7.10;;;6.37;;
7517;SDS011;3800;48.922;9.444;2023-01-28T02:34:15;7.47;;;6.17;;
7517;SDS011;3800;48.922;9.444;2023-01-28T02:36:41;7.53;;;6.07;;
7517;SDS011;3800;48.922;9.444;2023-01-28T02:39:12;7.07;;;6.30;;
7517;SDS011;3800;48.922;9.444;2023-01-28T02:41:40;7.90;;;5.60;;
7517;SDS011;3800;48.922;9.444;2023-01-28T02:44:05;6.13;;;5.53;;
7517;SDS011;3800;48.922;9.444;2023-01-28T02:46:34;6.87;;;6.17;;
7517;SDS011;3800;48.922;9.444;2023-01-28T02:49:09;7.13;;;5.73;;
7517;SDS011;3800;48.922;9.444;2023-01-28T02:51:41;6.80;;;6.10;;
7517;SDS011;3800;48.922;9.444;2023-01-28T02:54:13;8.03;;;5.93;;
7517;SDS011;3800;48.922;9.444;2023-01-28T02:56:51;7.57;;;6.67;;
7517;SDS011;3800;48.922;9.444;2023-01-28T02:59:22;7.87;;;7.07;;
7517;SDS011;3800;48.922;9.444;2023-01-28T03:01:52;11.40;;;7.93;;
7517;SDS011;3800;48.922;9.444;2023-01-28T03:04:22;7.90;;;7.10;;
7517;SDS011;3800;48.922;9.444;2023-01-28T03:06:52;8.17;;;6.60;;
7517;SDS011;3800;48.922;9.444;2023-01-28T03:09:18;8.87;;;7.77;;
7517;SDS011;3800;48.922;9.444;2023-01-28T03:11:50;8.03;;;7.20;;
7517;SDS011;3800;48.922;9.444;2023-01-28T03:14:36;10.00;;;7.30;;
7517;SDS011;3800;48.922;9.444;2023-01-28T03:19:59;10.37;;;7.37;;
7517;SDS011;3800;48.922;9.444;2023-01-28T03:22:33;10.97;;;7.87;;
7517;SDS011;3800;48.922;9.444;2023-01-28T03:25:05;13.37;;;8.20;;
7517;SDS011;3800;48.922;9.444;2023-01-28T03:27:47;8.33;;;7.40;;
7517;SDS011;3800;48.922;9.444;2023-01-28T03:30:21;9.30;;;8.30;;
7517;SDS011;3800;48.922;9.444;2023-01-28T03:32:52;8.60;;;7.60;;
7517;SDS011;3800;48.922;9.444;2023-01-28T03:35:27;9.07;;;8.10;;
7517;SDS011;3800;48.922;9.444;2023-01-28T03:37:59;8.27;;;7.47;;
7517;SDS011;3800;48.922;9.444;2023-01-28T03:40:26;11.90;;;8.43;;
7517;SDS011;3800;48.922;9.444;2023-01-28T03:42:54;10.33;;;8.43;;
7517;SDS011;3800;48.922;9.444;2023-01-28T03:45:23;9.60;;;7.67;;
7517;SDS011;3800;48.922;9.444;2023-01-28T03:47:51;11.37;;;8.23;;
7517;SDS011;3800;48.922;9.444;2023-01-28T03:50:19;9.77;;;8.70;;
7517;SDS011;3800;48.922;9.444;2023-01-28T03:52:46;8.93;;;7.77;;
7517;SDS011;3800;48.922;9.444;2023-01-28T03:55:14;10.17;;;8.63;;
7517;SDS011;3800;48.922;9.444;2023-01-28T03:57:42;12.17;;;9.43;;
7517;SDS011;3800;48.922;9.444;2023-01-28T04:00:09;9.07;;;8.13;;
7517;SDS011;3800;48.922;9.444;2023-01-28T04:02:39;10.70;;;9.03;;
7517;SDS011;3800;48.922;9.444;2023-01-28T04:05:08;11.67;;;9.57;;
7517;SDS011;3800;48.922;9.444;2023-01-28T04:07:35;10.40;;;9.10;;
7517;SDS011;3800;48.922;9.444;2023-01-28T04:10:03;10.13;;;8.87;;
7517;SDS011;3800;48.922;9.444;2023-01-28T04:12:31;11.43;;;9.67;;
7517;SDS011;3800;48.922;9.444;2023-01-28T04:14:59;10.97;;;8.70;;
7517;SDS011;3800;48.922;9.444;2023-01-28T04:17:26;10.17;;;8.83;;
7517;SDS011;3800;48.922;9.444;2023-01-28T04:19:54;11.10;;;8.97;;
7517;SDS011;3800;48.922;9.444;2023-01-28T04:22:22;11.87;;;9.10;;
7517;SDS011;3800;48.922;9.444;2023-01-28T04:24:49;12.17;;;9.67;;
7517;SDS011;3800;48.922;9.444;2023-01-28T04:27:17;12.17;;;9.47;;
7517;SDS011;3800;48.922;9.444;2023-01-28T04:29:44;10.47;;;8.97;;
7517;SDS011;3800;48.922;9.444;2023-01-28T04:32:12;10.33;;;8.87;;
7517;SDS011;3800;48.922;9.444;2023-01-28T04:34:40;11.07;;;9.50;;
7517;SDS011;3800;48.922;9.444;2023-01-28T04:37:07;13.23;;;9.50;;
7517;SDS011;3800;48.922;9.444;2023-01-28T04:39:35;9.47;;;8.47;;
7517;SDS011;3800;48.922;9.444;2023-01-28T04:42:03;12.83;;;8.97;;
7517;SDS011;3800;48.922;9.444;2023-01-28T04:44:30;10.83;;;9.27;;
7517;SDS011;3800;48.922;9.444;2023-01-28T04:46:58;10.57;;;9.20;;
7517;SDS011;3800;48.922;9.444;2023-01-28T04:49:26;14.03;;;10.13;;
7517;SDS011;3800;48.922;9.444;2023-01-28T04:51:54;15.07;;;9.03;;
7517;SDS011;3800;48.922;9.444;2023-01-28T04:54:22;10.50;;;9.37;;
7517;SDS011;3800;48.922;9.444;2023-01-28T04:56:49;10.47;;;8.80;;
7517;SDS011;3800;48.922;9.444;2023-01-28T04:59:17;11.70;;;9.50;;
7517;SDS011;3800;48.922;9.444;2023-01-28T05:01:45;11.17;;;9.70;;
7517;SDS011;3800;48.922;9.444;2023-01-28T05:04:12;10.73;;;8.83;;
7517;SDS011;3800;48.922;9.444;2023-01-28T05:06:40;10.43;;;8.93;;
7517;SDS011;3800;48.922;9.444;2023-01-28T05:09:08;10.83;;;9.03;;
7517;SDS011;3800;48.922;9.444;2023-01-28T05:11:35;11.20;;;9.00;;
7517;SDS011;3800;48.922;9.444;2023-01-28T05:14:05;13.70;;;9.70;;
7517;SDS011;3800;48.922;9.444;2023-01-28T05:16:32;12.10;;;9.47;;
7517;SDS011;3800;48.922;9.444;2023-01-28T05:19:00;10.67;;;8.80;;
7517;SDS011;3800;48.922;9.444;2023-01-28T05:21:28;10.17;;;8.80;;
7517;SDS011;3800;48.922;9.444;2023-01-28T05:23:56;11.27;;;8.47;;
7517;SDS011;3800;48.922;9.444;2023-01-28T05:26:23;11.30;;;9.03;;
7517;SDS011;3800;48.922;9.444;2023-01-28T05:28:50;10.23;;;8.83;;
7517;SDS011;3800;48.922;9.444;2023-01-28T05:31:18;10.13;;;8.83;;
7517;SDS011;3800;48.922;9.444;2023-01-28T05:33:46;11.10;;;9.40;;
7517;SDS011;3800;48.922;9.444;2023-01-28T05:36:13;9.77;;;8.67;;
7517;SDS011;3800;48.922;9.444;2023-01-28T05:38:41;11.10;;;9.50;;
7517;SDS011;3800;48.922;9.444;2023-01-28T05:41:09;11.87;;;9.63;;
7517;SDS011;3800;48.922;9.444;2023-01-28T05:43:36;12.20;;;10.23;;
7517;SDS011;3800;48.922;9.444;2023-01-28T05:46:05;12.37;;;9.17;;
7517;SDS011;3800;48.922;9.444;2023-01-28T05:48:32;10.77;;;9.07;;
7517;SDS011;3800;48.922;9.444;2023-01-28T05:51:00;12.27;;;9.50;;
7517;SDS011;3800;48.922;9.444;2023-01-28T05:53:28;10.43;;;9.30;;
7517;SDS011;3800;48.922;9.444;2023-01-28T05:55:55;11.00;;;9.83;;
7517;SDS011;3800;48.922;9.444;2023-01-28T05:58:23;10.93;;;9.67;;
7517;SDS011;3800;48.922;9.444;2023-01-28T06:00:53;12.03;;;10.23;;
7517;SDS011;3800;48.922;9.444;2023-01-28T06:03:20;11.67;;;9.77;;
7517;SDS011;3800;48.922;9.444;2023-01-28T06:05:47;12.73;;;10.40;;
7517;SDS011;3800;48.922;9.444;2023-01-28T06:08:15;13.10;;;11.17;;
7517;SDS011;3800;48.922;9.444;2023-01-28T06:10:43;11.53;;;10.33;;
7517;SDS011;3800;48.922;9.444;2023-01-28T06:13:10;12.57;;;10.70;;
7517;SDS011;3800;48.922;9.444;2023-01-28T06:15:38;10.80;;;9.33;;
7517;SDS011;3800;48.922;9.444;2023-01-28T06:18:05;13.77;;;11.40;;
7517;SDS011;3800;48.922;9.444;2023-01-28T06:20:33;11.20;;;9.80;;
7517;SDS011;3800;48.922;9.444;2023-01-28T06:23:02;12.63;;;10.87;;
7517;SDS011;3800;48.922;9.444;2023-01-28T06:25:29;11.37;;;9.73;;
7517;SDS011;3800;48.922;9.444;2023-01-28T06:27:57;13.60;;;10.37;;
7517;SDS011;3800;48.922;9.444;2023-01-28T06:30:24;12.77;;;10.80;;
7517;SDS011;3800;48.922;9.444;2023-01-28T06:32:53;12.17;;;10.43;;
7517;SDS011;3800;48.922;9.444;2023-01-28T06:35:20;14.47;;;10.17;;
7517;SDS011;3800;48.922;9.444;2023-01-28T06:37:47;12.07;;;10.33;;
7517;SDS011;3800;48.922;9.444;2023-01-28T06:40:15;15.57;;;12.03;;
7517;SDS011;3800;48.922;9.444;2023-01-28T06:42:43;23.23;;;15.27;;
7517;SDS011;3800;48.922;9.444;2023-01-28T06:45:11;32.73;;;19.37;;
7517;SDS011;3800;48.922;9.444;2023-01-28T06:47:38;24.53;;;15.87;;
7517;SDS011;3800;48.922;9.444;2023-01-28T06:50:06;22.53;;;16.23;;
7517;SDS011;3800;48.922;9.444;2023-01-28T06:52:34;15.53;;;12.10;;
7517;SDS011;3800;48.922;9.444;2023-01-28T06:55:02;13.33;;;10.27;;
7517;SDS011;3800;48.922;9.444;2023-01-28T06:57:30;12.80;;;10.13;;
7517;SDS011;3800;48.922;9.444;2023-01-28T06:59:58;13.10;;;9.93;;
7517;SDS011;3800;48.922;9.444;2023-01-28T07:02:26;13.47;;;10.57;;
7517;SDS011;3800;48.922;9.444;2023-01-28T07:04:53;12.57;;;10.43;;
7517;SDS011;3800;48.922;9.444;2023-01-28T07:07:22;11.50;;;9.83;;
7517;SDS011;3800;48.922;9.444;2023-01-28T07:09:49;13.30;;;10.23;;
7517;SDS011;3800;48.922;9.444;2023-01-28T07:12:17;11.23;;;9.83;;
7517;SDS011;3800;48.922;9.444;2023-01-28T07:14:45;12.60;;;9.77;;
7517;SDS011;3800;48.922;9.444;2023-01-28T07:17:12;11.53;;;9.83;;
7517;SDS011;3800;48.922;9.444;2023-01-28T07:19:40;13.23;;;10.77;;
7517;SDS011;3800;48.922;9.444;2023-01-28T07:22:08;12.93;;;10.73;;
7517;SDS011;3800;48.922;9.444;2023-01-28T07:24:35;11.70;;;9.77;;
7517;SDS011;3800;48.922;9.444;2023-01-28T07:27:03;12.47;;;10.60;;
7517;SDS011;3800;48.922;9.444;2023-01-28T07:29:31;12.43;;;10.23;;
7517;SDS011;3800;48.922;9.444;2023-01-28T07:31:58;13.33;;;10.73;;
7517;SDS011;3800;48.922;9.444;2023-01-28T07:34:26;13.57;;;10.37;;
7517;SDS011;3800;48.922;9.444;2023-01-28T07:36:54;13.87;;;9.90;;
7517;SDS011;3800;48.922;9.444;2023-01-28T07:39:22;11.33;;;10.10;;
7517;SDS011;3800;48.922;9.444;2023-01-28T07:41:49;12.43;;;10.60;;
7517;SDS011;3800;48.922;9.444;2023-01-28T07:44:18;12.47;;;10.00;;
7517;SDS011;3800;48.922;9.444;2023-01-28T07:46:45;12.17;;;10.67;;
7517;SDS011;3800;48.922;9.444;2023-01-28T07:49:13;12.97;;;10.70;;
7517;SDS011;3800;48.922;9.444;2023-01-28T07:51:41;13.03;;;10.77;;
7517;SDS011;3800;48.922;9.444;2023-01-28T07:54:09;13.37;;;11.23;;
7517;SDS011;3800;48.922;9.444;2023-01-28T07:56:37;13.07;;;11.40;;
7517;SDS011;3800;48.922;9.444;2023-01-28T07:59:05;14.50;;;12.00;;
7517;SDS011;3800;48.922;9.444;2023-01-28T08:01:34;14.27;;;11.33;;
7517;SDS011;3800;48.922;9.444;2023-01-28T08:04:02;14.57;;;12.00;;
7517;SDS011;3800;48.922;9.444;2023-01-28T08:06:31;13.50;;;11.47;;
7517;SDS011;3800;48.922;9.444;2023-01-28T08:08:58;13.33;;;10.80;;
7517;SDS011;3800;48.922;9.444;2023-01-28T08:11:27;12.97;;;10.63;;
7517;SDS011;3800;48.922;9.444;2023-01-28T08:13:55;12.73;;;10.73;;
7517;SDS011;3800;48.922;9.444;2023-01-28T08:16:23;14.33;;;11.47;;
7517;SDS011;3800;48.922;9.444;2023-01-28T08:18:51;14.73;;;12.07;;
7517;SDS011;3800;48.922;9.444;2023-01-28T08:21:19;14.10;;;11.83;;
7517;SDS011;3800;48.922;9.444;2023-01-28T08:23:47;18.97;;;13.93;;
7517;SDS011;3800;48.922;9.444;2023-01-28T08:26:15;18.57;;;14.30;;
7517;SDS011;3800;48.922;9.444;2023-01-28T08:28:43;18.33;;;14.10;;
7517;SDS011;3800;48.922;9.444;2023-01-28T08:31:11;15.80;;;13.50;;
7517;SDS011;3800;48.922;9.444;2023-01-28T08:33:38;16.27;;;13.07;;
7517;SDS011;3800;48.922;9.444;2023-01-28T08:36:06;15.40;;;12.90;;
7517;SDS011;3800;48.922;9.444;2023-01-28T08:38:35;15.60;;;12.37;;
7517;SDS011;3800;48.922;9.444;2023-01-28T08:41:03;16.10;;;12.83;;
7517;SDS011;3800;48.922;9.444;2023-01-28T08:43:31;16.07;;;12.93;;
7517;SDS011;3800;48.922;9.444;2023-01-28T08:45:59;18.57;;;13.17;;
7517;SDS011;3800;48.922;9.444;2023-01-28T08:48:26;16.17;;;12.97;;
7517;SDS011;3800;48.922;9.444;2023-01-28T08:50:54;21.43;;;14.87;;
7517;SDS011;3800;48.922;9.444;2023-01-28T08:53:22;18.13;;;12.67;;
7517;SDS011;3800;48.922;9.444;2023-01-28T08:55:50;17.20;;;14.17;;
7517;SDS011;3800;48.922;9.444;2023-01-28T08:58:18;18.43;;;13.90;;
7517;SDS011;3800;48.922;9.444;2023-01-28T09:00:46;15.77;;;13.20;;
7517;SDS011;3800;48.922;9.444;2023-01-28T09:03:14;19.63;;;13.83;;
7517;SDS011;3800;48.922;9.444;2023-01-28T09:05:42;22.73;;;14.77;;
7517;SDS011;3800;48.922;9.444;2023-01-28T09:08:11;18.27;;;14.10;;
7517;SDS011;3800;48.922;9.444;2023-01-28T09:10:38;17.20;;;13.30;;
7517;SDS011;3800;48.922;9.444;2023-01-28T09:13:08;17.30;;;13.50;;
7517;SDS011;3800;48.922;9.444;2023-01-28T09:15:36;16.97;;;13.27;;
7517;SDS011;3800;48.922;9.444;2023-01-28T09:18:04;18.13;;;13.37;;
7517;SDS011;3800;48.922;9.444;2023-01-28T09:20:32;16.57;;;13.17;;
7517;SDS011;3800;48.922;9.444;2023-01-28T09:23:09;17.43;;;13.30;;
7517;SDS011;3800;48.922;9.444;2023-01-28T09:25:37;16.90;;;12.80;;
7517;SDS011;3800;48.922;9.444;2023-01-28T09:28:05;19.50;;;13.70;;
7517;SDS011;3800;48.922;9.444;2023-01-28T09:30:33;18.63;;;13.73;;
7517;SDS011;3800;48.922;9.444;2023-01-28T09:33:02;16.97;;;13.37;;
7517;SDS011;3800;48.922;9.444;2023-01-28T09:35:32;17.23;;;13.40;;
7517;SDS011;3800;48.922;9.444;2023-01-28T09:38:00;17.90;;;13.97;;
7517;SDS011;3800;48.922;9.444;2023-01-28T09:40:33;19.30;;;13.67;;
7517;SDS011;3800;48.922;9.444;2023-01-28T09:43:06;17.10;;;13.57;;
7517;SDS011;3800;48.922;9.444;2023-01-28T09:45:39;16.40;;;12.93;;
7517;SDS011;3800;48.922;9.444;2023-01-28T09:48:09;17.80;;;13.40;;
7517;SDS011;3800;48.922;9.444;2023-01-28T09:50:34;16.47;;;13.27;;
7517;SDS011;3800;48.922;9.444;2023-01-28T09:53:04;17.57;;;13.53;;
7517;SDS011;3800;48.922;9.444;2023-01-28T09:55:45;17.47;;;13.60;;
7517;SDS011;3800;48.922;9.444;2023-01-28T09:58:13;17.43;;;13.27;;
7517;SDS011;3800;48.922;9.444;2023-01-28T10:00:44;15.40;;;13.17;;
7517;SDS011;3800;48.922;9.444;2023-01-28T10:03:31;19.57;;;13.27;;
7517;SDS011;3800;48.922;9.444;2023-01-28T10:06:15;19.47;;;13.27;;
7517;SDS011;3800;48.922;9.444;2023-01-28T10:12:03;16.57;;;12.87;;
7517;SDS011;3800;48.922;9.444;2023-01-28T10:14:20;17.70;;;13.77;;
7517;SDS011;3800;48.922;9.444;2023-01-28T10:16:48;16.47;;;12.57;;
7517;SDS011;3800;48.922;9.444;2023-01-28T10:19:20;16.17;;;13.00;;
7517;SDS011;3800;48.922;9.444;2023-01-28T10:21:51;20.80;;;14.00;;
7517;SDS011;3800;48.922;9.444;2023-01-28T10:24:23;19.07;;;13.77;;
7517;SDS011;3800;48.922;9.444;2023-01-28T10:26:50;19.57;;;14.70;;
7517;SDS011;3800;48.922;9.444;2023-01-28T10:29:19;19.20;;;13.30;;
7517;SDS011;3800;48.922;9.444;2023-01-28T10:31:51;19.07;;;13.87;;
7517;SDS011;3800;48.922;9.444;2023-01-28T10:34:22;16.73;;;13.00;;
7517;SDS011;3800;48.922;9.444;2023-01-28T10:36:49;15.77;;;12.97;;
7517;SDS011;3800;48.922;9.444;2023-01-28T10:39:19;17.07;;;13.03;;
7517;SDS011;3800;48.922;9.444;2023-01-28T10:41:45;16.60;;;12.93;;
7517;SDS011;3800;48.922;9.444;2023-01-28T10:44:15;17.33;;;13.87;;
7517;SDS011;3800;48.922;9.444;2023-01-28T10:46:42;16.87;;;13.13;;
7517;SDS011;3800;48.922;9.444;2023-01-28T10:49:12;17.47;;;13.43;;
7517;SDS011;3800;48.922;9.444;2023-01-28T10:51:40;17.13;;;13.20;;
7517;SDS011;3800;48.922;9.444;2023-01-28T10:56:40;17.50;;;13.23;;
7517;SDS011;3800;48.922;9.444;2023-01-28T11:01:44;15.93;;;12.43;;
7517;SDS011;3800;48.922;9.444;2023-01-28T11:04:14;16.63;;;12.30;;
7517;SDS011;3800;48.922;9.444;2023-01-28T11:06:50;17.53;;;12.87;;
7517;SDS011;3800;48.922;9.444;2023-01-28T11:11:47;16.33;;;12.90;;
7517;SDS011;3800;48.922;9.444;2023-01-28T11:14:19;17.73;;;12.60;;
7517;SDS011;3800;48.922;9.444;2023-01-28T11:16:46;18.47;;;13.83;;
7517;SDS011;3800;48.922;9.444;2023-01-28T11:19:14;20.43;;;13.53;;
7517;SDS011;3800;48.922;9.444;2023-01-28T11:21:46;18.93;;;14.37;;
7517;SDS011;3800;48.922;9.444;2023-01-28T11:24:13;17.33;;;13.70;;
7517;SDS011;3800;48.922;9.444;2023-01-28T11:26:44;17.37;;;13.10;;
7517;SDS011;3800;48.922;9.444;2023-01-28T11:29:19;18.17;;;13.40;;
7517;SDS011;3800;48.922;9.444;2023-01-28T11:31:59;19.37;;;13.43;;
7517;SDS011;3800;48.922;9.444;2023-01-28T11:34:29;18.47;;;14.00;;
7517;SDS011;3800;48.922;9.444;2023-01-28T11:37:01;17.53;;;12.63;;
7517;SDS011;3800;48.922;9.444;2023-01-28T11:39:28;18.20;;;13.53;;
7517;SDS011;3800;48.922;9.444;2023-01-28T11:42:10;18.97;;;13.23;;
7517;SDS011;3800;48.922;9.444;2023-01-28T11:44:39;16.20;;;12.23;;
7517;SDS011;3800;48.922;9.444;2023-01-28T11:52:54;18.50;;;13.20;;
7517;SDS011;3800;48.922;9.444;2023-01-28T11:55:30;16.43;;;11.33;;
7517;SDS011;3800;48.922;9.444;2023-01-28T11:58:03;16.20;;;11.30;;
7517;SDS011;3800;48.922;9.444;2023-01-28T12:00:40;16.57;;;11.97;;
7517;SDS011;3800;48.922;9.444;2023-01-28T12:03:33;16.77;;;11.77;;
7517;SDS011;3800;48.922;9.444;2023-01-28T12:06:10;14.33;;;10.80;;
7517;SDS011;3800;48.922;9.444;2023-01-28T12:08:36;14.10;;;11.10;;
7517;SDS011;3800;48.922;9.444;2023-01-28T12:11:22;15.73;;;11.10;;
7517;SDS011;3800;48.922;9.444;2023-01-28T12:13:50;15.63;;;10.83;;
7517;SDS011;3800;48.922;9.444;2023-01-28T12:16:22;14.47;;;10.60;;
7517;SDS011;3800;48.922;9.444;2023-01-28T12:18:56;14.00;;;10.43;;
7517;SDS011;3800;48.922;9.444;2023-01-28T12:21:43;11.17;;;8.60;;
7517;SDS011;3800;48.922;9.444;2023-01-28T12:24:31;10.53;;;9.23;;
7517;SDS011;3800;48.922;9.444;2023-01-28T12:27:43;10.10;;;8.53;;
7517;SDS011;3800;48.922;9.444;2023-01-28T12:29:59;11.40;;;8.83;;
7517;SDS011;3800;48.922;9.444;2023-01-28T12:37:59;12.47;;;8.97;;
7517;SDS011;3800;48.922;9.444;2023-01-28T12:40:36;11.93;;;8.93;;
7517;SDS011;3800;48.922;9.444;2023-01-28T12:43:01;12.03;;;8.97;;
7517;SDS011;3800;48.922;9.444;2023-01-28T12:45:38;11.93;;;8.80;;
7517;SDS011;3800;48.922;9.444;2023-01-28T12:48:21;10.30;;;8.13;;
7517;SDS011;3800;48.922;9.444;2023-01-28T12:50:54;11.87;;;8.60;;
7517;SDS011;3800;48.922;9.444;2023-01-28T12:53:25;13.63;;;8.93;;
7517;SDS011;3800;48.922;9.444;2023-01-28T12:55:57;14.60;;;9.30;;
7517;SDS011;3800;48.922;9.444;2023-01-28T12:58:46;12.90;;;9.47;;
7517;SDS011;3800;48.922;9.444;2023-01-28T13:01:17;11.63;;;9.33;;
7517;SDS011;3800;48.922;9.444;2023-01-28T13:08:58;13.60;;;9.53;;
7517;SDS011;3800;48.922;9.444;2023-01-28T13:11:29;12.47;;;9.43;;
7517;SDS011;3800;48.922;9.444;2023-01-28T13:13:54;11.47;;;9.40;;
7517;SDS011;3800;48.922;9.444;2023-01-28T13:16:22;13.83;;;10.07;;
7517;SDS011;3800;48.922;9.444;2023-01-28T13:18:51;9.97;;;8.67;;
7517;SDS011;3800;48.922;9.444;2023-01-28T13:21:28;12.00;;;8.73;;
7517;SDS011;3800;48.922;9.444;2023-01-28T13:24:04;10.77;;;8.93;;
7517;SDS011;3800;48.922;9.444;2023-01-28T13:26:40;11.77;;;8.93;;
7517;SDS011;3800;48.922;9.444;2023-01-28T13:29:19;10.57;;;9.00;;
7517;SDS011;3800;48.922;9.444;2023-01-28T13:31:49;11.23;;;9.37;;
7517;SDS011;3800;48.922;9.444;2023-01-28T13:36:56;9.87;;;8.87;;
7517;SDS011;3800;48.922;9.444;2023-01-28T13:39:25;10.67;;;8.70;;
7517;SDS011;3800;48.922;9.444;2023-01-28T13:41:53;9.10;;;7.80;;
7517;SDS011;3800;48.922;9.444;2023-01-28T13:44:28;10.20;;;8.23;;
7517;SDS011;3800;48.922;9.444;2023-01-28T13:46:59;9.47;;;8.07;;
7517;SDS011;3800;48.922;9.444;2023-01-28T13:49:29;8.43;;;7.63;;
7517;SDS011;3800;48.922;9.444;2023-01-28T13:52:00;7.97;;;7.07;;
7517;SDS011;3800;48.922;9.444;2023-01-28T13:54:43;9.03;;;7.03;;
7517;SDS011;3800;48.922;9.444;2023-01-28T14:00:28;7.27;;;6.57;;
7517;SDS011;3800;48.922;9.444;2023-01-28T14:03:19;7.37;;;6.57;;
7517;SDS011;3800;48.922;9.444;2023-01-28T14:08:55;7.37;;;6.67;;
7517;SDS011;3800;48.922;9.444;2023-01-28T14:11:30;8.50;;;7.70;;
7517;SDS011;3800;48.922;9.444;2023-01-28T14:16:39;7.83;;;6.70;;
7517;SDS011;3800;48.922;9.444;2023-01-28T14:19:10;7.50;;;6.80;;
7517;SDS011;3800;48.922;9.444;2023-01-28T14:21:36;7.67;;;6.40;;
7517;SDS011;3800;48.922;9.444;2023-01-28T14:24:04;7.50;;;6.80;;
7517;SDS011;3800;48.922;9.444;2023-01-28T14:26:39;8.47;;;7.57;;
7517;SDS011;3800;48.922;9.444;2023-01-28T14:29:35;7.80;;;7.00;;
7517;SDS011;3800;48.922;9.444;2023-01-28T14:32:18;6.40;;;5.80;;
7517;SDS011;3800;48.922;9.444;2023-01-28T14:34:45;7.43;;;6.53;;
7517;SDS011;3800;48.922;9.444;2023-01-28T14:37:14;9.77;;;7.10;;
7517;SDS011;3800;48.922;9.444;2023-01-28T14:39:45;7.63;;;6.80;;
7517;SDS011;3800;48.922;9.444;2023-01-28T14:42:17;9.50;;;7.33;;
7517;SDS011;3800;48.922;9.444;2023-01-28T14:44:43;7.30;;;6.60;;
7517;SDS011;3800;48.922;9.444;2023-01-28T14:47:18;8.47;;;6.67;;
7517;SDS011;3800;48.922;9.444;2023-01-28T14:55:33;7.93;;;7.13;;
7517;SDS011;3800;48.922;9.444;2023-01-28T14:58:03;7.40;;;6.50;;
7517;SDS011;3800;48.922;9.444;2023-01-28T15:00:32;8.80;;;6.30;;
7517;SDS011;3800;48.922;9.444;2023-01-28T15:03:10;7.50;;;6.47;;
7517;SDS011;3800;48.922;9.444;2023-01-28T15:05:35;7.07;;;6.10;;
7517;SDS011;3800;48.922;9.444;2023-01-28T15:08:03;7.73;;;6.27;;
7517;SDS011;3800;48.922;9.444;2023-01-28T15:10:37;8.63;;;6.80;;
7517;SDS011;3800;48.922;9.444;2023-01-28T15:13:07;7.47;;;6.57;;
7517;SDS011;3800;48.922;9.444;2023-01-28T15:15:35;7.90;;;6.83;;
7517;SDS011;3800;48.922;9.444;2023-01-28T15:18:04;7.03;;;6.27;;
7517;SDS011;3800;48.922;9.444;2023-01-28T15:20:34;6.97;;;6.27;;
7517;SDS011;3800;48.922;9.444;2023-01-28T15:23:02;7.97;;;6.80;;
7517;SDS011;3800;48.922;9.444;2023-01-28T15:25:30;7.30;;;6.53;;
7517;SDS011;3800;48.922;9.444;2023-01-28T15:27:58;16.63;;;11.37;;
7517;SDS011;3800;48.922;9.444;2023-01-28T15:30:28;18.53;;;12.80;;
7517;SDS011;3800;48.922;9.444;2023-01-28T15:32:56;8.83;;;7.90;;
7517;SDS011;3800;48.922;9.444;2023-01-28T15:35:27;9.23;;;8.30;;
7517;SDS011;3800;48.922;9.444;2023-01-28T15:37:56;8.93;;;7.77;;
7517;SDS011;3800;48.922;9.444;2023-01-28T15:40:25;7.87;;;7.10;;
7517;SDS011;3800;48.922;9.444;2023-01-28T15:42:53;13.40;;;11.43;;
7517;SDS011;3800;48.922;9.444;2023-01-28T15:45:21;8.57;;;7.70;;
7517;SDS011;3800;48.922;9.444;2023-01-28T15:47:50;13.83;;;11.43;;
7517;SDS011;3800;48.922;9.444;2023-01-28T15:50:21;10.17;;;9.10;;
7517;SDS011;3800;48.922;9.444;2023-01-28T15:52:48;10.33;;;9.27;;
7517;SDS011;3800;48.922;9.444;2023-01-28T15:55:52;7.80;;;7.00;;
7517;SDS011;3800;48.922;9.444;2023-01-28T16:00:41;6.80;;;5.83;;
7517;SDS011;3800;48.922;9.444;2023-01-28T16:03:08;7.90;;;7.10;;
7517;SDS011;3800;48.922;9.444;2023-01-28T16:05:37;8.30;;;7.50;;
7517;SDS011;3800;48.922;9.444;2023-01-28T16:08:08;7.37;;;6.57;;